Time;durP1;ratioP1;P1;durP2;ratioP2;P2;SDS_P1;SDS_P2;PMS_P1;PMS_P2;Temp;Humidity;BMP_temperature;BMP_pressure;BME280_temperature;BME280_humidity;BME280_pressure;Samples;Min_cycle;Max_cycle;Signal;HPM_P1;HPM_P2
2022/03/10 00:01:50;;;;;;;;;;;1.40;99.90;;;;;;5094832;28;19940;-61
2022/03/10 00:04:16;;;;;;;;;;;1.30;99.90;;;;;;5094950;28;19920;-61
2022/03/10 00:06:41;;;;;;;;;;;1.20;99.90;;;;;;5112879;28;19931;-61
2022/03/10 00:09:07;;;;;;;;;;;1.10;99.90;;;;;;5112489;28;19924;-61
2022/03/10 00:11:33;;;;;;;;;;;1.00;99.90;;;;;;5112892;28;19969;-61
2022/03/10 00:13:59;;;;;;;;;;;1.00;99.90;;;;;;5112801;28;20019;-61
2022/03/10 00:16:25;;;;;;;;;;;1.00;99.90;;;;;;5112812;28;19930;-60
2022/03/10 00:18:51;;;;;;;;;;;0.80;99.90;;;;;;5113470;28;19946;-60
2022/03/10 00:21:16;;;;;;;;;;;0.70;99.90;;;;;;5112293;28;20428;-61
2022/03/10 00:23:42;;;;;;;;;;;0.60;99.90;;;;;;5113063;28;19924;-61
2022/03/10 00:26:08;;;;;;;;;;;0.50;99.90;;;;;;5112873;28;19923;-61
2022/03/10 00:28:34;;;;;;;;;;;0.50;99.90;;;;;;5115402;28;19935;-60
2022/03/10 00:31:00;;;;;;;;;;;0.40;99.90;;;;;;5116694;28;19972;-61
2022/03/10 00:33:25;;;;;;;;;;;0.40;99.90;;;;;;5116816;28;19924;-60
2022/03/10 00:35:51;;;;;;;;;;;0.30;99.90;;;;;;5116036;28;20596;-61
2022/03/10 00:38:17;;;;;;;;;;;0.30;99.90;;;;;;5098175;28;19923;-61
2022/03/10 00:40:42;;;;;;;;;;;0.30;99.90;;;;;;5098651;28;19927;-60
2022/03/10 00:43:11;;;;;;;;;;;0.30;99.90;;;;;;5114642;28;19924;-60
2022/03/10 00:45:36;;;;;;;;;;;0.30;99.90;;;;;;5116453;28;19928;-60
2022/03/10 00:48:02;;;;;;;;;;;0.20;99.90;;;;;;5097233;28;19920;-60
2022/03/10 00:50:28;;;;;;;;;;;0.30;99.90;;;;;;5098190;28;19939;-60
2022/03/10 00:52:53;;;;;;;;;;;0.30;99.90;;;;;;5113921;28;20744;-61
2022/03/10 00:55:19;;;;;;;;;;;0.30;99.90;;;;;;5115552;28;19924;-60
2022/03/10 00:57:45;;;;;;;;;;;0.40;99.90;;;;;;5116358;28;19990;-60
2022/03/10 01:00:11;;;;;;;;;;;0.40;99.90;;;;;;5084698;28;20378;-60
2022/03/10 01:02:37;;;;;;;;;;;0.50;99.90;;;;;;5115642;28;19931;-60
2022/03/10 01:05:04;;;;;;;;;;;0.50;99.90;;;;;;5116361;28;19924;-61
2022/03/10 01:07:29;;;;;;;;;;;0.60;99.90;;;;;;5115166;28;19923;-60
2022/03/10 01:09:55;;;;;;;;;;;0.60;99.90;;;;;;5104683;28;20029;-61
2022/03/10 01:12:21;;;;;;;;;;;0.60;99.90;;;;;;5104806;28;19986;-60
2022/03/10 01:14:46;;;;;;;;;;;0.60;99.90;;;;;;5095711;28;19927;-61
2022/03/10 01:17:12;;;;;;;;;;;0.60;99.90;;;;;;5094620;28;19931;-61
2022/03/10 01:19:38;;;;;;;;;;;0.50;99.90;;;;;;5100271;28;20020;-60
2022/03/10 01:22:03;;;;;;;;;;;0.50;99.90;;;;;;5097729;28;20432;-61
2022/03/10 01:24:29;;;;;;;;;;;0.50;99.90;;;;;;5114597;28;20293;-60
2022/03/10 01:26:55;;;;;;;;;;;0.40;99.90;;;;;;5097034;28;19965;-60
2022/03/10 01:29:20;;;;;;;;;;;0.40;99.90;;;;;;5115808;28;19968;-60
2022/03/10 01:31:46;;;;;;;;;;;0.40;99.90;;;;;;5114735;28;19931;-60
2022/03/10 01:34:13;;;;;;;;;;;0.30;99.90;;;;;;5095963;28;20006;-60
2022/03/10 01:36:39;;;;;;;;;;;0.30;99.90;;;;;;5115513;28;19930;-60
2022/03/10 01:39:05;;;;;;;;;;;0.20;99.90;;;;;;5113621;28;19924;-60
2022/03/10 01:41:32;;;;;;;;;;;0.20;99.90;;;;;;5115727;28;19924;-60
2022/03/10 01:43:59;;;;;;;;;;;0.20;99.90;;;;;;5115556;28;20030;-60
2022/03/10 01:46:25;;;;;;;;;;;0.10;99.90;;;;;;5095631;28;20019;-60
2022/03/10 01:48:50;;;;;;;;;;;0.00;99.90;;;;;;5095013;28;20353;-60
2022/03/10 01:51:16;;;;;;;;;;;0.00;99.90;;;;;;5094672;28;20007;-60
2022/03/10 01:53:42;;;;;;;;;;;0.00;99.90;;;;;;5100401;28;19924;-60
2022/03/10 01:56:10;;;;;;;;;;;0.00;99.90;;;;;;5115516;28;20077;-60
2022/03/10 01:58:36;;;;;;;;;;;0.00;99.90;;;;;;5092581;28;20014;-60
2022/03/10 02:01:02;;;;;;;;;;;0.10;99.90;;;;;;5094607;28;19924;-60
2022/03/10 02:03:27;;;;;;;;;;;0.10;99.90;;;;;;5108062;28;19923;-60
2022/03/10 02:05:53;;;;;;;;;;;0.20;99.90;;;;;;5114300;28;20110;-60
2022/03/10 02:11:05;;;;;;;;;;;0.30;99.90;;;;;;5114372;28;20043;-60
2022/03/10 02:13:30;;;;;;;;;;;0.30;99.90;;;;;;5114456;28;20385;-60
2022/03/10 02:18:40;;;;;;;;;;;0.20;99.90;;;;;;5114642;28;20067;-60
2022/03/10 02:21:05;;;;;;;;;;;0.00;99.90;;;;;;5095390;28;20022;-60
2022/03/10 02:23:31;;;;;;;;;;;0.00;99.90;;;;;;5114666;28;19931;-60
2022/03/10 02:25:59;;;;;;;;;;;0.00;99.90;;;;;;5114874;28;19919;-60
2022/03/10 02:28:25;;;;;;;;;;;0.00;99.90;;;;;;5095396;28;20049;-60
2022/03/10 02:30:51;;;;;;;;;;;0.00;99.90;;;;;;5095927;28;19974;-60
2022/03/10 02:33:16;;;;;;;;;;;-0.10;99.90;;;;;;5114620;28;19982;-60
2022/03/10 02:35:42;;;;;;;;;;;-0.10;99.90;;;;;;5113973;28;20018;-60
2022/03/10 02:38:08;;;;;;;;;;;-0.10;99.90;;;;;;5113902;28;19967;-60
2022/03/10 02:40:33;;;;;;;;;;;-0.10;99.90;;;;;;5113739;28;19931;-60
2022/03/10 02:42:59;;;;;;;;;;;-0.10;99.90;;;;;;5114332;28;20293;-60
2022/03/10 02:45:25;;;;;;;;;;;0.00;99.90;;;;;;5114118;28;19981;-60
2022/03/10 02:47:51;;;;;;;;;;;0.00;99.90;;;;;;5113128;28;20420;-60
2022/03/10 02:50:16;;;;;;;;;;;0.10;99.90;;;;;;5113768;28;19969;-60
2022/03/10 02:52:42;;;;;;;;;;;0.10;99.90;;;;;;5113656;28;19924;-60
2022/03/10 02:55:08;;;;;;;;;;;0.10;99.90;;;;;;5113168;28;19977;-60
2022/03/10 02:57:34;;;;;;;;;;;0.10;99.90;;;;;;5114226;28;19927;-60
2022/03/10 03:00:00;;;;;;;;;;;0.00;99.90;;;;;;5113792;28;19931;-60
2022/03/10 03:02:26;;;;;;;;;;;0.10;99.90;;;;;;5113341;28;19924;-60
2022/03/10 03:04:52;;;;;;;;;;;0.10;99.90;;;;;;5113806;28;19974;-60
2022/03/10 03:07:18;;;;;;;;;;;0.10;99.90;;;;;;5095563;28;19931;-60
2022/03/10 03:09:43;;;;;;;;;;;0.00;99.90;;;;;;5112877;28;19928;-60
2022/03/10 03:12:09;;;;;;;;;;;-0.10;99.90;;;;;;5113712;28;19923;-60
2022/03/10 03:14:34;;;;;;;;;;;-0.20;99.90;;;;;;5113258;28;19923;-60
2022/03/10 03:17:00;;;;;;;;;;;-0.40;99.90;;;;;;5094907;28;19923;-60
2022/03/10 03:19:26;;;;;;;;;;;-0.60;99.90;;;;;;5113626;28;19967;-60
2022/03/10 03:21:52;;;;;;;;;;;-0.70;99.90;;;;;;5094565;28;19931;-60
2022/03/10 03:24:18;;;;;;;;;;;-0.70;99.90;;;;;;5113022;28;19994;-60
2022/03/10 03:26:44;;;;;;;;;;;-0.60;99.90;;;;;;5113767;28;19927;-60
2022/03/10 03:29:10;;;;;;;;;;;-0.50;99.90;;;;;;5113397;28;20019;-60
2022/03/10 03:31:37;;;;;;;;;;;-0.60;99.90;;;;;;5112669;28;19955;-60
2022/03/10 03:34:09;;;;;;;;;;;-0.60;99.90;;;;;;5113483;28;20392;-60
2022/03/10 03:36:36;;;;;;;;;;;-0.70;99.90;;;;;;5113378;28;19919;-60
2022/03/10 03:39:02;;;;;;;;;;;-0.60;99.90;;;;;;5113091;28;19928;-60
2022/03/10 03:41:27;;;;;;;;;;;-0.60;99.90;;;;;;5113245;28;20023;-60
2022/03/10 03:43:53;;;;;;;;;;;-0.60;99.90;;;;;;5094016;28;19924;-60
2022/03/10 03:46:19;;;;;;;;;;;-0.60;99.90;;;;;;5113763;28;19927;-60
2022/03/10 03:48:46;;;;;;;;;;;-0.60;99.90;;;;;;5113043;28;19930;-60
2022/03/10 03:51:11;;;;;;;;;;;-0.60;99.90;;;;;;5094266;28;19928;-60
2022/03/10 03:53:37;;;;;;;;;;;-0.60;99.90;;;;;;5113718;28;19927;-60
2022/03/10 03:56:03;;;;;;;;;;;-0.70;99.90;;;;;;5113632;28;19924;-60
2022/03/10 03:58:28;;;;;;;;;;;-0.90;99.90;;;;;;5112016;28;19931;-60
2022/03/10 04:00:54;;;;;;;;;;;-1.10;99.90;;;;;;5113527;28;19924;-60
2022/03/10 04:03:20;;;;;;;;;;;-1.10;99.90;;;;;;5116392;28;19924;-60
2022/03/10 04:05:45;;;;;;;;;;;-1.10;99.90;;;;;;5116327;28;19930;-60
2022/03/10 04:08:11;;;;;;;;;;;-1.00;99.90;;;;;;5116703;28;19926;-60
2022/03/10 04:10:37;;;;;;;;;;;-1.00;99.90;;;;;;5117205;28;20014;-60
2022/03/10 04:13:03;;;;;;;;;;;-1.00;99.90;;;;;;5115981;28;20411;-60
2022/03/10 04:15:29;;;;;;;;;;;-1.00;99.90;;;;;;5116706;28;20354;-60
2022/03/10 04:17:55;;;;;;;;;;;-1.00;99.90;;;;;;5098841;28;19978;-60
2022/03/10 04:20:21;;;;;;;;;;;-1.10;99.90;;;;;;5116160;28;19967;-60
2022/03/10 04:22:46;;;;;;;;;;;-1.10;99.90;;;;;;5117215;28;19923;-60
2022/03/10 04:25:12;;;;;;;;;;;-1.20;99.90;;;;;;5116631;28;19923;-60
2022/03/10 04:27:38;;;;;;;;;;;-1.20;99.90;;;;;;5115813;28;19998;-60
2022/03/10 04:30:04;;;;;;;;;;;-1.30;99.90;;;;;;5098329;28;19924;-60
2022/03/10 04:32:38;;;;;;;;;;;-1.30;99.90;;;;;;5116682;28;20026;-60
2022/03/10 04:35:04;;;;;;;;;;;-1.20;99.90;;;;;;5115810;28;19934;-60
2022/03/10 04:37:30;;;;;;;;;;;-1.30;99.90;;;;;;5115891;28;20002;-60
2022/03/10 04:39:55;;;;;;;;;;;-1.40;99.90;;;;;;5116764;28;19924;-60
2022/03/10 04:42:21;;;;;;;;;;;-1.50;99.90;;;;;;5115555;28;19935;-60
2022/03/10 04:44:47;;;;;;;;;;;-1.50;99.90;;;;;;5098244;28;19924;-60
2022/03/10 04:47:12;;;;;;;;;;;-1.40;99.90;;;;;;5116047;28;19924;-60
2022/03/10 04:49:38;;;;;;;;;;;-1.40;99.90;;;;;;5097855;28;19924;-60
2022/03/10 04:52:04;;;;;;;;;;;-1.30;99.90;;;;;;5116135;28;20305;-60
2022/03/10 04:54:29;;;;;;;;;;;-1.30;99.90;;;;;;5114493;28;19935;-60
2022/03/10 04:56:55;;;;;;;;;;;-1.20;99.90;;;;;;5114621;28;19927;-60
2022/03/10 04:59:21;;;;;;;;;;;-1.20;99.90;;;;;;5116210;28;20056;-60
2022/03/10 05:01:46;;;;;;;;;;;-1.10;99.90;;;;;;5097333;28;19939;-60
2022/03/10 05:04:12;;;;;;;;;;;-1.10;99.90;;;;;;5097750;28;19931;-60
2022/03/10 05:06:38;;;;;;;;;;;-1.10;99.90;;;;;;5116295;28;19999;-60
2022/03/10 05:09:03;;;;;;;;;;;-1.10;99.90;;;;;;5114810;28;19934;-60
2022/03/10 05:11:29;;;;;;;;;;;-1.10;99.90;;;;;;5115764;28;19947;-60
2022/03/10 05:13:54;;;;;;;;;;;-1.10;99.90;;;;;;5114677;28;20370;-60
2022/03/10 05:16:20;;;;;;;;;;;-1.10;99.90;;;;;;5097059;28;19927;-60
2022/03/10 05:18:46;;;;;;;;;;;-1.10;99.90;;;;;;5115782;28;19931;-60
2022/03/10 05:21:11;;;;;;;;;;;-1.10;99.90;;;;;;5115440;28;19923;-60
2022/03/10 05:23:37;;;;;;;;;;;-1.00;99.90;;;;;;5115126;28;19973;-60
2022/03/10 05:26:02;;;;;;;;;;;-1.00;99.90;;;;;;5115638;28;19965;-60
2022/03/10 05:28:28;;;;;;;;;;;-1.10;99.90;;;;;;5096917;28;19924;-60
2022/03/10 05:30:54;;;;;;;;;;;-1.10;99.90;;;;;;5097019;28;19935;-60
2022/03/10 05:33:19;;;;;;;;;;;-1.10;99.90;;;;;;5097697;28;19924;-60
2022/03/10 05:35:45;;;;;;;;;;;-1.10;99.90;;;;;;5114987;28;20326;-60
2022/03/10 05:38:11;;;;;;;;;;;-1.10;99.90;;;;;;5114794;28;19924;-59
2022/03/10 05:40:36;;;;;;;;;;;-1.00;99.90;;;;;;5115569;28;19924;-60
2022/03/10 05:43:02;;;;;;;;;;;-1.00;99.90;;;;;;5115247;28;20002;-60
2022/03/10 05:45:27;;;;;;;;;;;-1.00;99.90;;;;;;5114575;28;19969;-61
2022/03/10 05:47:54;;;;;;;;;;;-0.90;99.90;;;;;;5096926;28;19946;-60
2022/03/10 05:50:20;;;;;;;;;;;-0.80;99.90;;;;;;5096700;28;19931;-61
2022/03/10 05:52:46;;;;;;;;;;;-0.90;99.90;;;;;;5096331;28;19970;-61
2022/03/10 05:55:12;;;;;;;;;;;-1.00;99.90;;;;;;5115083;28;20508;-61
2022/03/10 05:57:38;;;;;;;;;;;-1.00;99.90;;;;;;5114253;28;20392;-61
2022/03/10 06:00:04;;;;;;;;;;;-1.10;99.90;;;;;;5115381;28;19928;-60
2022/03/10 06:02:38;;;;;;;;;;;-1.10;99.90;;;;;;5114759;28;19924;-61
2022/03/10 06:05:04;;;;;;;;;;;-1.10;99.90;;;;;;5114032;28;20025;-60
2022/03/10 06:07:30;;;;;;;;;;;-1.00;99.90;;;;;;5114903;28;19920;-61
2022/03/10 06:09:56;;;;;;;;;;;-1.00;99.90;;;;;;5114425;28;20055;-61
2022/03/10 06:12:23;;;;;;;;;;;-1.10;99.90;;;;;;5113741;28;20015;-61
2022/03/10 06:14:52;;;;;;;;;;;-1.10;99.90;;;;;;5096572;28;19967;-60
2022/03/10 06:17:18;;;;;;;;;;;-1.10;99.90;;;;;;5115108;28;19976;-61
2022/03/10 06:19:43;;;;;;;;;;;-1.10;99.90;;;;;;5094922;28;20018;-61
2022/03/10 06:22:10;;;;;;;;;;;-1.00;99.90;;;;;;5114883;28;19927;-61
2022/03/10 06:24:35;;;;;;;;;;;-1.00;99.90;;;;;;5114322;28;19930;-61
2022/03/10 06:27:01;;;;;;;;;;;-0.90;99.90;;;;;;5113585;28;19919;-61
2022/03/10 06:29:26;;;;;;;;;;;-0.80;99.90;;;;;;5114217;28;19924;-61
2022/03/10 06:31:52;;;;;;;;;;;-0.70;99.90;;;;;;5096209;28;19977;-61
2022/03/10 06:34:18;;;;;;;;;;;-0.60;99.90;;;;;;5095092;28;19959;-61
2022/03/10 06:36:43;;;;;;;;;;;-0.60;99.90;;;;;;5099414;28;19972;-60
2022/03/10 06:39:09;;;;;;;;;;;-0.50;99.90;;;;;;5114500;28;19923;-61
2022/03/10 06:41:35;;;;;;;;;;;-0.40;99.90;;;;;;5095381;28;19923;-61
2022/03/10 06:44:00;;;;;;;;;;;-0.30;99.90;;;;;;5103301;28;19924;-61
2022/03/10 06:46:26;;;;;;;;;;;-0.20;99.90;;;;;;5105821;28;19924;-61
2022/03/10 06:48:52;;;;;;;;;;;-0.10;99.90;;;;;;5112976;28;19930;-61
2022/03/10 06:51:17;;;;;;;;;;;0.10;99.90;;;;;;5096193;28;19923;-61
2022/03/10 06:53:43;;;;;;;;;;;0.20;99.90;;;;;;5113583;28;19924;-61
2022/03/10 06:56:08;;;;;;;;;;;0.30;99.90;;;;;;5113647;28;19930;-60
2022/03/10 06:58:35;;;;;;;;;;;0.40;99.90;;;;;;5114200;28;19928;-61
2022/03/10 07:01:00;;;;;;;;;;;0.50;99.90;;;;;;5113223;28;19946;-60
2022/03/10 07:03:26;;;;;;;;;;;0.60;99.90;;;;;;5113328;28;20370;-61
2022/03/10 07:05:51;;;;;;;;;;;0.70;99.90;;;;;;5113877;28;20370;-60
2022/03/10 07:08:18;;;;;;;;;;;0.80;99.90;;;;;;5113012;28;19923;-61
2022/03/10 07:10:43;;;;;;;;;;;0.90;99.90;;;;;;5113585;28;20048;-61
2022/03/10 07:13:09;;;;;;;;;;;0.90;99.90;;;;;;5095425;28;20373;-60
2022/03/10 07:15:34;;;;;;;;;;;0.90;99.90;;;;;;5094811;28;20369;-61
2022/03/10 07:18:00;;;;;;;;;;;1.10;99.90;;;;;;5113527;28;19928;-61
2022/03/10 07:20:26;;;;;;;;;;;1.20;99.90;;;;;;5113687;28;19924;-61
2022/03/10 07:22:51;;;;;;;;;;;1.30;99.90;;;;;;5112711;28;19924;-61
2022/03/10 07:25:18;;;;;;;;;;;1.50;99.90;;;;;;5113503;28;19924;-60
2022/03/10 07:27:44;;;;;;;;;;;1.60;99.90;;;;;;5113734;28;19928;-61
2022/03/10 07:30:10;;;;;;;;;;;1.80;99.90;;;;;;5112694;28;19924;-60
2022/03/10 07:32:35;;;;;;;;;;;1.90;99.90;;;;;;5113378;28;19969;-60
2022/03/10 07:35:02;;;;;;;;;;;2.10;99.90;;;;;;5113609;28;19931;-61
2022/03/10 07:37:27;;;;;;;;;;;2.50;99.90;;;;;;5116047;28;20002;-61
2022/03/10 07:39:53;;;;;;;;;;;2.30;99.90;;;;;;5119958;28;20023;-61
2022/03/10 07:42:18;;;;;;;;;;;2.50;99.90;;;;;;5102354;28;20382;-61
2022/03/10 07:44:45;;;;;;;;;;;2.70;99.90;;;;;;5101190;28;19923;-60
2022/03/10 07:47:10;;;;;;;;;;;2.80;99.90;;;;;;5119909;28;19924;-61
2022/03/10 07:49:36;;;;;;;;;;;2.90;99.90;;;;;;5101678;28;19931;-61
2022/03/10 07:52:03;;;;;;;;;;;3.00;99.90;;;;;;5119478;28;19931;-61
2022/03/10 07:54:29;;;;;;;;;;;3.30;99.90;;;;;;5119917;28;19919;-61
2022/03/10 07:56:54;;;;;;;;;;;3.60;99.90;;;;;;5119953;28;20259;-61
2022/03/10 07:59:20;;;;;;;;;;;3.60;99.90;;;;;;5119468;28;19924;-59
2022/03/10 08:01:46;;;;;;;;;;;3.90;99.90;;;;;;5101436;28;19982;-59
2022/03/10 08:04:12;;;;;;;;;;;4.00;99.90;;;;;;5100667;28;19924;-59
2022/03/10 08:06:37;;;;;;;;;;;4.30;99.90;;;;;;5119352;28;19923;-59
2022/03/10 08:09:06;;;;;;;;;;;4.50;99.90;;;;;;5100254;28;20320;-59
2022/03/10 08:11:32;;;;;;;;;;;4.70;99.90;;;;;;5118476;28;19924;-59
2022/03/10 08:13:57;;;;;;;;;;;4.90;99.90;;;;;;5119542;28;20379;-59
2022/03/10 08:16:23;;;;;;;;;;;5.10;99.90;;;;;;5114037;28;20012;-59
2022/03/10 08:18:49;;;;;;;;;;;5.30;99.90;;;;;;5087856;28;19931;-59
2022/03/10 08:21:15;;;;;;;;;;;5.50;99.90;;;;;;5113162;28;19931;-59
2022/03/10 08:23:41;;;;;;;;;;;5.70;99.90;;;;;;5112840;28;20358;-60
2022/03/10 08:26:08;;;;;;;;;;;5.90;99.90;;;;;;5108448;28;20362;-60
2022/03/10 08:28:34;;;;;;;;;;;6.10;99.90;;;;;;5099072;28;19977;-60
2022/03/10 08:30:59;;;;;;;;;;;6.30;99.90;;;;;;5082541;28;20359;-60
2022/03/10 08:33:25;;;;;;;;;;;6.50;99.90;;;;;;5116458;28;20024;-60
2022/03/10 08:35:52;;;;;;;;;;;6.70;99.90;;;;;;5118890;28;20366;-60
2022/03/10 08:38:17;;;;;;;;;;;6.80;99.90;;;;;;5111351;28;19924;-61
2022/03/10 08:40:43;;;;;;;;;;;7.00;99.90;;;;;;5111629;28;19924;-60
2022/03/10 08:43:12;;;;;;;;;;;7.10;99.90;;;;;;5103277;28;19924;-60
2022/03/10 08:45:37;;;;;;;;;;;7.30;99.90;;;;;;5119343;28;20495;-60
2022/03/10 08:48:03;;;;;;;;;;;7.40;99.90;;;;;;5117551;28;20006;-60
2022/03/10 08:50:29;;;;;;;;;;;7.50;99.90;;;;;;5113658;28;19930;-60
2022/03/10 08:52:55;;;;;;;;;;;7.70;99.90;;;;;;5116342;28;20289;-60
2022/03/10 08:55:21;;;;;;;;;;;7.80;99.90;;;;;;5083868;28;20394;-60
2022/03/10 08:57:47;;;;;;;;;;;8.00;99.90;;;;;;5115667;28;19969;-60
2022/03/10 09:00:13;;;;;;;;;;;8.10;99.90;;;;;;5115432;28;19924;-60
2022/03/10 09:02:41;;;;;;;;;;;8.20;99.90;;;;;;5097287;28;19931;-60
2022/03/10 09:05:08;;;;;;;;;;;8.40;99.90;;;;;;5098260;28;19931;-60
2022/03/10 09:07:34;;;;;;;;;;;8.50;99.90;;;;;;5115207;28;20301;-60
2022/03/10 09:10:01;;;;;;;;;;;8.60;99.90;;;;;;5115605;28;19923;-63
2022/03/10 09:12:28;;;;;;;;;;;8.80;99.90;;;;;;5116039;28;19924;-60
2022/03/10 09:14:53;;;;;;;;;;;8.90;99.90;;;;;;5115553;28;20022;-60
2022/03/10 09:17:19;;;;;;;;;;;9.10;99.90;;;;;;5115215;28;20008;-60
2022/03/10 09:19:45;;;;;;;;;;;9.20;99.90;;;;;;5116041;28;19924;-60
2022/03/10 09:22:11;;;;;;;;;;;9.30;99.90;;;;;;5095241;28;19985;-59
2022/03/10 09:24:36;;;;;;;;;;;9.50;99.40;;;;;;5115365;28;19931;-59
2022/03/10 09:27:02;;;;;;;;;;;9.60;99.40;;;;;;5104886;28;20013;-60
2022/03/10 09:29:28;;;;;;;;;;;9.70;98.60;;;;;;5114334;28;19933;-60
2022/03/10 09:31:54;;;;;;;;;;;9.90;98.20;;;;;;5115308;28;20382;-60
2022/03/10 09:34:19;;;;;;;;;;;10.00;97.30;;;;;;5110016;28;19923;-60
2022/03/10 09:36:45;;;;;;;;;;;10.20;97.00;;;;;;5114155;28;20802;-60
2022/03/10 09:39:11;;;;;;;;;;;10.30;97.10;;;;;;5115203;28;19950;-60
2022/03/10 09:41:37;;;;;;;;;;;10.50;95.60;;;;;;5115338;28;20281;-60
2022/03/10 09:44:09;;;;;;;;;;;10.60;95.50;;;;;;5095218;28;20343;-60
2022/03/10 09:46:34;;;;;;;;;;;10.70;94.90;;;;;;5114808;28;19928;-60
2022/03/10 09:49:00;;;;;;;;;;;10.90;95.70;;;;;;5114659;28;20026;-60
2022/03/10 09:51:26;;;;;;;;;;;11.10;92.90;;;;;;5113687;28;19931;-60
2022/03/10 09:53:51;;;;;;;;;;;11.20;93.10;;;;;;5114300;28;19924;-60
2022/03/10 09:56:19;;;;;;;;;;;11.40;91.70;;;;;;5114656;28;19927;-60
2022/03/10 09:58:45;;;;;;;;;;;11.50;89.40;;;;;;5111366;28;20006;-60
2022/03/10 10:01:11;;;;;;;;;;;11.60;89.60;;;;;;5110876;28;19999;-60
2022/03/10 10:03:37;;;;;;;;;;;11.80;89.50;;;;;;5091084;28;20400;-60
2022/03/10 10:06:03;;;;;;;;;;;11.90;87.90;;;;;;5094510;28;19924;-60
2022/03/10 10:08:36;;;;;;;;;;;12.10;82.40;;;;;;5104573;28;20378;-60
2022/03/10 10:11:02;;;;;;;;;;;12.20;82.90;;;;;;5113330;28;19924;-60
2022/03/10 10:13:30;;;;;;;;;;;12.30;82.20;;;;;;5110107;28;21348;-60
2022/03/10 10:15:58;;;;;;;;;;;12.50;83.10;;;;;;5093838;28;20433;-60
2022/03/10 10:18:24;;;;;;;;;;;12.70;80.60;;;;;;5100991;28;19928;-60
2022/03/10 10:20:51;;;;;;;;;;;13.10;77.00;;;;;;5112260;28;19931;-60
2022/03/10 10:23:19;;;;;;;;;;;13.30;69.30;;;;;;5113834;28;20006;-60
2022/03/10 10:25:59;;;;;;;;;;;13.60;70.60;;;;;;5095463;28;19935;-60
2022/03/10 10:28:31;;;;;;;;;;;14.00;66.00;;;;;;5105410;28;19977;-60
2022/03/10 10:31:00;;;;;;;;;;;14.30;67.30;;;;;;5095780;28;19928;-61
2022/03/10 10:33:26;;;;;;;;;;;14.60;66.30;;;;;;5094423;28;19923;-60
2022/03/10 10:36:11;;;;;;;;;;;15.00;63.50;;;;;;5113320;28;20370;-60
2022/03/10 10:38:36;;;;;;;;;;;15.20;58.50;;;;;;5111097;28;19927;-60
2022/03/10 10:41:18;;;;;;;;;;;15.30;60.50;;;;;;5113141;28;20322;-60
2022/03/10 10:43:51;;;;;;;;;;;15.60;58.90;;;;;;5112546;28;19931;-60
2022/03/10 10:46:20;;;;;;;;;;;15.60;57.10;;;;;;5112208;28;20397;-61
2022/03/10 10:48:47;;;;;;;;;;;15.90;59.10;;;;;;5114166;28;20016;-61
2022/03/10 10:51:13;;;;;;;;;;;16.50;59.30;;;;;;5114342;28;20402;-60
2022/03/10 10:53:40;;;;;;;;;;;16.80;56.80;;;;;;5113075;28;20289;-61
2022/03/10 10:56:06;;;;;;;;;;;17.30;56.50;;;;;;5114232;28;19924;-61
2022/03/10 10:58:32;;;;;;;;;;;;;;;;;;5114281;28;19967;-60
2022/03/10 11:00:58;;;;;;;;;;;17.60;53.70;;;;;;5113241;28;19949;-61
2022/03/10 11:03:26;;;;;;;;;;;17.50;53.90;;;;;;5113361;28;20369;-60
2022/03/10 11:05:52;;;;;;;;;;;17.60;53.30;;;;;;5111090;28;20328;-60
2022/03/10 11:08:20;;;;;;;;;;;17.50;50.70;;;;;;5112583;28;19958;-60
2022/03/10 11:10:46;;;;;;;;;;;17.10;50.70;;;;;;5094375;28;19967;-62
2022/03/10 11:13:12;;;;;;;;;;;16.80;52.90;;;;;;5112672;28;20341;-60
2022/03/10 11:15:38;;;;;;;;;;;16.50;53.60;;;;;;5112763;28;19978;-61
2022/03/10 11:18:04;;;;;;;;;;;16.20;53.70;;;;;;5113580;28;20319;-61
2022/03/10 11:20:31;;;;;;;;;;;16.00;55.00;;;;;;5113561;28;19931;-61
2022/03/10 11:23:15;;;;;;;;;;;16.10;55.40;;;;;;5094150;28;19976;-60
2022/03/10 11:25:53;;;;;;;;;;;16.40;52.20;;;;;;5113316;28;19931;-60
2022/03/10 11:28:21;;;;;;;;;;;16.60;53.30;;;;;;5091977;28;20034;-60
2022/03/10 11:30:49;;;;;;;;;;;17.00;50.50;;;;;;5094741;28;19924;-60
2022/03/10 11:33:16;;;;;;;;;;;17.40;49.10;;;;;;5113010;28;19928;-60
2022/03/10 11:35:43;;;;;;;;;;;17.90;49.10;;;;;;5109464;28;19939;-60
2022/03/10 11:38:10;;;;;;;;;;;17.90;47.80;;;;;;5102537;28;19924;-61
2022/03/10 11:40:43;;;;;;;;;;;18.00;47.70;;;;;;5113437;28;20397;-61
2022/03/10 11:43:09;;;;;;;;;;;18.10;48.30;;;;;;5112816;28;20305;-60
2022/03/10 11:45:35;;;;;;;;;;;18.10;49.00;;;;;;5113402;28;19992;-60
2022/03/10 11:48:19;;;;;;;;;;;17.70;48.00;;;;;;5113156;28;19928;-60
2022/03/10 11:50:45;;;;;;;;;;;17.40;49.00;;;;;;5094363;28;19927;-61
2022/03/10 11:53:16;;;;;;;;;;;17.10;50.60;;;;;;5112225;28;20376;-60
2022/03/10 11:55:51;;;;;;;;;;;16.90;50.10;;;;;;5113209;28;19920;-60
2022/03/10 11:58:30;;;;;;;;;;;16.90;50.40;;;;;;5112626;28;19931;-60
2022/03/10 12:00:57;;;;;;;;;;;16.80;50.40;;;;;;5113158;28;19970;-60
2022/03/10 12:03:23;;;;;;;;;;;16.80;50.00;;;;;;5094417;28;19949;-60
2022/03/10 12:05:56;;;;;;;;;;;16.70;49.80;;;;;;5095044;28;19920;-60
2022/03/10 12:08:23;;;;;;;;;;;16.70;50.80;;;;;;5092543;28;19930;-60
2022/03/10 12:10:49;;;;;;;;;;;16.70;50.60;;;;;;5111859;28;20012;-61
2022/03/10 12:13:27;;;;;;;;;;;16.80;51.00;;;;;;5093845;28;20440;-61
2022/03/10 12:15:53;;;;;;;;;;;17.10;49.10;;;;;;5110633;28;20369;-60
2022/03/10 12:18:19;;;;;;;;;;;17.30;48.40;;;;;;5112200;28;19945;-60
2022/03/10 12:20:46;;;;;;;;;;;17.30;48.90;;;;;;5112502;28;19935;-60
2022/03/10 12:23:13;;;;;;;;;;;17.30;48.00;;;;;;5094654;28;20429;-60
2022/03/10 12:25:40;;;;;;;;;;;17.20;47.60;;;;;;5115510;28;20019;-60
2022/03/10 12:28:06;;;;;;;;;;;17.20;48.70;;;;;;5116528;28;20373;-60
2022/03/10 12:30:32;;;;;;;;;;;16.90;47.40;;;;;;5116142;28;20381;-61
2022/03/10 12:32:58;;;;;;;;;;;17.00;49.30;;;;;;5116346;28;19934;-61
2022/03/10 12:35:26;;;;;;;;;;;17.20;48.50;;;;;;5116947;28;19953;-60
2022/03/10 12:37:52;;;;;;;;;;;17.40;47.10;;;;;;5098210;28;19930;-61
2022/03/10 12:40:18;;;;;;;;;;;17.70;48.10;;;;;;5097704;28;20010;-60
2022/03/10 12:42:46;;;;;;;;;;;17.80;48.00;;;;;;5116196;28;20067;-61
2022/03/10 12:45:11;;;;;;;;;;;17.60;46.80;;;;;;5080854;28;19950;-60
2022/03/10 12:47:39;;;;;;;;;;;17.50;47.50;;;;;;5094726;28;19925;-60
2022/03/10 12:50:05;;;;;;;;;;;17.40;46.70;;;;;;5115150;28;19924;-61
2022/03/10 12:52:40;;;;;;;;;;;16.90;46.20;;;;;;5115633;28;19931;-60
2022/03/10 12:55:06;;;;;;;;;;;17.10;48.50;;;;;;5116544;28;19931;-60
2022/03/10 12:57:35;;;;;;;;;;;17.40;48.60;;;;;;5116343;28;19923;-61
2022/03/10 13:00:01;;;;;;;;;;;17.90;47.90;;;;;;5115424;28;19923;-61
2022/03/10 13:02:27;;;;;;;;;;;18.30;46.70;;;;;;5116496;28;19931;-61
2022/03/10 13:04:57;;;;;;;;;;;18.60;47.20;;;;;;5116581;28;19931;-60
2022/03/10 13:07:29;;;;;;;;;;;19.10;45.10;;;;;;5114958;28;19924;-61
2022/03/10 13:09:56;;;;;;;;;;;19.70;45.70;;;;;;5115914;28;19931;-61
2022/03/10 13:12:23;;;;;;;;;;;20.50;43.60;;;;;;5115972;28;19978;-61
2022/03/10 13:14:48;;;;;;;;;;;21.10;42.90;;;;;;5114754;28;20286;-60
2022/03/10 13:17:14;;;;;;;;;;;21.30;40.60;;;;;;5116058;28;19930;-61
2022/03/10 13:20:07;;;;;;;;;;;21.40;41.30;;;;;;5115772;28;19923;-61
2022/03/10 13:22:33;;;;;;;;;;;21.60;40.90;;;;;;5097116;28;19930;-61
2022/03/10 13:24:59;;;;;;;;;;;21.80;40.70;;;;;;5097575;28;19923;-60
2022/03/10 13:27:26;;;;;;;;;;;21.80;40.70;;;;;;5097377;28;20404;-62
2022/03/10 13:29:52;;;;;;;;;;;21.90;40.50;;;;;;5096652;28;19924;-60
2022/03/10 13:32:25;;;;;;;;;;;21.60;40.10;;;;;;5115466;28;20373;-60
2022/03/10 13:34:54;;;;;;;;;;;21.20;40.80;;;;;;5095393;28;19924;-61
2022/03/10 13:37:20;;;;;;;;;;;20.90;41.60;;;;;;5097310;28;20362;-61
2022/03/10 13:39:46;;;;;;;;;;;20.50;42.30;;;;;;5097183;28;19927;-61
2022/03/10 13:42:18;;;;;;;;;;;20.40;42.90;;;;;;5114626;28;19924;-61
2022/03/10 13:44:44;;;;;;;;;;;20.40;42.60;;;;;;5097113;28;19965;-60
2022/03/10 13:47:09;;;;;;;;;;;20.50;42.10;;;;;;5115445;28;19931;-61
2022/03/10 13:49:40;;;;;;;;;;;20.40;42.20;;;;;;5096131;28;20026;-61
2022/03/10 13:52:10;;;;;;;;;;;20.00;41.90;;;;;;5115053;28;20381;-60
2022/03/10 13:54:37;;;;;;;;;;;19.70;42.90;;;;;;5115233;28;19931;-60
2022/03/10 13:57:03;;;;;;;;;;;19.60;43.70;;;;;;5114140;28;19931;-61
2022/03/10 13:59:30;;;;;;;;;;;19.60;43.80;;;;;;5114840;28;19924;-61
2022/03/10 14:01:55;;;;;;;;;;;19.60;43.40;;;;;;5096932;28;20023;-61
2022/03/10 14:04:21;;;;;;;;;;;19.40;43.90;;;;;;5114643;28;19975;-60
2022/03/10 14:06:48;;;;;;;;;;;19.10;43.70;;;;;;5114669;28;19938;-61
2022/03/10 14:09:15;;;;;;;;;;;18.80;44.50;;;;;;5113811;28;19976;-61
2022/03/10 14:11:41;;;;;;;;;;;18.60;45.00;;;;;;5113812;28;19923;-61
2022/03/10 14:14:06;;;;;;;;;;;18.50;45.50;;;;;;5114764;28;19931;-61
2022/03/10 14:16:32;;;;;;;;;;;18.40;45.70;;;;;;5114573;28;19930;-61
2022/03/10 14:18:58;;;;;;;;;;;18.40;44.70;;;;;;5114123;28;19965;-61
2022/03/10 14:21:23;;;;;;;;;;;18.40;45.70;;;;;;5114352;28;20023;-61
2022/03/10 14:23:56;;;;;;;;;;;18.50;46.00;;;;;;5114533;28;19923;-60
2022/03/10 14:26:22;;;;;;;;;;;18.50;46.70;;;;;;5095991;28;19965;-61